Time;durP1;ratioP1;P1;durP2;ratioP2;P2;SDS_P1;SDS_P2;PMS_P1;PMS_P2;Temp;Humidity;BMP_temperature;BMP_pressure;BME280_temperature;BME280_humidity;BME280_pressure;Samples;Min_cycle;Max_cycle;Signal;HPM_P1;HPM_P2
2022/06/22 00:01:42;;;;;;;10.60;2.30;;;;;;;;;;5071512;28;20137;-74
2022/06/22 00:04:14;;;;;;;6.63;1.70;;;;;;;;;;5079587;28;20025;-74
2022/06/22 00:06:46;;;;;;;4.60;1.83;;;;;;;;;;5078502;28;20026;-74
2022/06/22 00:09:28;;;;;;;5.00;2.30;;;;;;;;;;5081567;28;20036;-74
2022/06/22 00:11:54;;;;;;;5.15;2.17;;;;;;;;;;5078967;28;20417;-74
2022/06/22 00:14:25;;;;;;;4.80;1.90;;;;;;;;;;5079076;28;20017;-75
2022/06/22 00:16:53;;;;;;;7.50;1.95;;;;;;;;;;5070617;28;20040;-75
2022/06/22 00:19:33;;;;;;;2.05;1.70;;;;;;;;;;5077111;28;20016;-75
2022/06/22 00:21:59;;;;;;;6.65;1.90;;;;;;;;;;5069514;28;20036;-74
2022/06/22 00:24:25;;;;;;;2.13;1.73;;;;;;;;;;5080080;28;20032;-75
2022/06/22 00:26:55;;;;;;;5.97;1.85;;;;;;;;;;5072068;28;20028;-75
2022/06/22 00:29:35;;;;;;;3.25;1.83;;;;;;;;;;5073859;28;20032;-75
2022/06/22 00:32:04;;;;;;;6.80;2.25;;;;;;;;;;5063186;28;20052;-75
2022/06/22 00:34:32;;;;;;;5.03;2.28;;;;;;;;;;5069791;28;20048;-75
2022/06/22 00:37:01;;;;;;;3.83;2.00;;;;;;;;;;5074504;28;20033;-75
2022/06/22 00:39:30;;;;;;;3.40;1.70;;;;;;;;;;5069860;28;20029;-75
2022/06/22 00:42:18;;;;;;;3.65;1.70;;;;;;;;;;5071046;28;20029;-75
2022/06/22 00:45:03;;;;;;;4.40;1.70;;;;;;;;;;5058013;28;20040;-74
2022/06/22 00:47:35;;;;;;;5.25;1.70;;;;;;;;;;5070454;28;20031;-75
2022/06/22 00:50:13;;;;;;;5.18;2.03;;;;;;;;;;5074833;28;20470;-75
2022/06/22 00:52:45;;;;;;;2.17;1.80;;;;;;;;;;5071548;28;20044;-74
2022/06/22 00:55:19;;;;;;;2.90;1.80;;;;;;;;;;5070410;28;20071;-75
2022/06/22 00:57:48;;;;;;;5.70;2.05;;;;;;;;;;5070955;28;20104;-75
2022/06/22 01:00:17;;;;;;;3.33;1.70;;;;;;;;;;5071474;28;20377;-75
2022/06/22 01:02:55;;;;;;;4.63;1.90;;;;;;;;;;5071026;28;20083;-75
2022/06/22 01:05:30;;;;;;;3.45;1.90;;;;;;;;;;5070396;28;20029;-74
2022/06/22 01:08:08;;;;;;;4.45;1.85;;;;;;;;;;5072949;28;20359;-75
2022/06/22 01:10:54;;;;;;;3.20;1.70;;;;;;;;;;5073345;28;20371;-74
2022/06/22 01:13:35;;;;;;;6.05;1.88;;;;;;;;;;5074489;28;20099;-75
2022/06/22 01:16:05;;;;;;;4.07;1.90;;;;;;;;;;5077923;28;20032;-74
2022/06/22 01:18:34;;;;;;;3.55;1.83;;;;;;;;;;5076863;28;20032;-75
2022/06/22 01:21:08;;;;;;;2.72;1.70;;;;;;;;;;5073854;28;20087;-75
2022/06/22 01:23:38;;;;;;;5.05;1.70;;;;;;;;;;5073629;28;20389;-75
2022/06/22 01:26:23;;;;;;;3.65;1.63;;;;;;;;;;5074580;28;20028;-75
2022/06/22 01:28:59;;;;;;;6.47;1.90;;;;;;;;;;5073275;28;20071;-74
2022/06/22 01:31:25;;;;;;;3.20;1.80;;;;;;;;;;5074783;28;20039;-75
2022/06/22 01:33:52;;;;;;;3.35;1.70;;;;;;;;;;5074616;28;20020;-74
2022/06/22 01:36:22;;;;;;;4.95;1.65;;;;;;;;;;5073809;28;20393;-75
2022/06/22 01:38:48;;;;;;;3.63;1.63;;;;;;;;;;5074088;28;20120;-75
2022/06/22 01:41:17;;;;;;;4.03;1.85;;;;;;;;;;5074421;28;20477;-75
2022/06/22 01:43:52;;;;;;;7.07;2.20;;;;;;;;;;5074535;28;20048;-74
2022/06/22 01:46:30;;;;;;;3.35;1.70;;;;;;;;;;5072432;28;20052;-74
2022/06/22 01:49:04;;;;;;;4.22;1.50;;;;;;;;;;5074042;28;20052;-75
2022/06/22 01:51:32;;;;;;;5.35;1.58;;;;;;;;;;5074404;28;20119;-75
2022/06/22 01:54:04;;;;;;;3.53;1.70;;;;;;;;;;5072856;28;20028;-75
2022/06/22 01:56:54;;;;;;;4.82;1.67;;;;;;;;;;5070353;28;20038;-74
2022/06/22 01:59:30;;;;;;;3.25;1.70;;;;;;;;;;5068292;28;20028;-74
2022/06/22 02:01:59;;;;;;;6.53;2.42;;;;;;;;;;5074775;28;20043;-75
2022/06/22 02:04:44;;;;;;;2.47;1.50;;;;;;;;;;5069337;28;20028;-75
2022/06/22 02:10:04;;;;;;;4.45;1.90;;;;;;;;;;5073669;28;20031;-75
2022/06/22 02:12:34;;;;;;;3.28;1.80;;;;;;;;;;5072943;28;20062;-75
2022/06/22 02:15:08;;;;;;;3.88;1.83;;;;;;;;;;5073976;28;20047;-75
2022/06/22 02:17:37;;;;;;;2.90;1.80;;;;;;;;;;5074680;28;20031;-75
2022/06/22 02:20:21;;;;;;;4.10;1.90;;;;;;;;;;5074699;28;20037;-74
2022/06/22 02:22:48;;;;;;;2.90;2.10;;;;;;;;;;5073660;28;20085;-74
2022/06/22 02:25:15;;;;;;;3.25;2.05;;;;;;;;;;5073801;28;20427;-75
2022/06/22 02:27:41;;;;;;;3.53;1.90;;;;;;;;;;5079913;28;20500;-75
2022/06/22 02:30:08;;;;;;;3.50;1.90;;;;;;;;;;5077429;28;20043;-74
2022/06/22 02:32:36;;;;;;;4.40;1.95;;;;;;;;;;5076745;28;20036;-75
2022/06/22 02:35:04;;;;;;;5.05;2.17;;;;;;;;;;5072686;28;20276;-75
2022/06/22 02:37:34;;;;;;;4.22;2.40;;;;;;;;;;5073436;28;20032;-75
2022/06/22 02:40:03;;;;;;;5.30;2.25;;;;;;;;;;5071512;28;20032;-74
2022/06/22 02:45:17;;;;;;;3.80;2.47;;;;;;;;;;5071397;28;20031;-74
2022/06/22 02:47:48;;;;;;;3.90;2.30;;;;;;;;;;5074433;28;20035;-75
2022/06/22 02:50:18;;;;;;;5.85;2.35;;;;;;;;;;5072007;28;20032;-75
2022/06/22 02:52:46;;;;;;;6.45;2.13;;;;;;;;;;5068507;28;20086;-76
2022/06/22 02:55:14;;;;;;;4.15;2.28;;;;;;;;;;5073248;28;20030;-75
2022/06/22 02:57:40;;;;;;;4.05;2.58;;;;;;;;;;5073228;28;20029;-75
2022/06/22 03:00:08;;;;;;;5.38;2.40;;;;;;;;;;5072717;28;20028;-76
2022/06/22 03:02:34;;;;;;;5.38;2.63;;;;;;;;;;5071125;28;20043;-75
2022/06/22 03:05:01;;;;;;;8.35;2.60;;;;;;;;;;5072940;28;20531;-75
2022/06/22 03:07:27;;;;;;;4.93;2.50;;;;;;;;;;5072991;28;20071;-75
2022/06/22 03:09:53;;;;;;;4.65;3.10;;;;;;;;;;5072651;28;20362;-74
2022/06/22 03:12:19;;;;;;;8.88;2.85;;;;;;;;;;5074107;28;20445;-76
2022/06/22 03:14:45;;;;;;;5.43;2.92;;;;;;;;;;5072935;28;20081;-76
2022/06/22 03:17:15;;;;;;;5.18;2.90;;;;;;;;;;5073318;28;20028;-75
2022/06/22 03:19:44;;;;;;;8.50;2.78;;;;;;;;;;5072208;28;20048;-75
2022/06/22 03:22:14;;;;;;;5.63;2.80;;;;;;;;;;5070470;28;20033;-74
2022/06/22 03:24:45;;;;;;;8.98;2.75;;;;;;;;;;5073539;28;20107;-75
2022/06/22 03:27:20;;;;;;;4.72;2.67;;;;;;;;;;5076928;28;20031;-75
2022/06/22 03:29:53;;;;;;;4.30;2.70;;;;;;;;;;5076593;28;20500;-74
2022/06/22 03:32:24;;;;;;;6.25;2.90;;;;;;;;;;5079263;28;20110;-75
2022/06/22 03:34:54;;;;;;;9.35;3.35;;;;;;;;;;5073706;28;20112;-75
2022/06/22 03:37:23;;;;;;;7.90;2.67;;;;;;;;;;5074246;28;20070;-75
2022/06/22 03:39:51;;;;;;;5.60;2.40;;;;;;;;;;5072027;28;20143;-75
2022/06/22 03:42:25;;;;;;;8.50;2.40;;;;;;;;;;5071793;28;20382;-75
2022/06/22 03:44:57;;;;;;;5.00;2.55;;;;;;;;;;5073204;28;20025;-75
2022/06/22 03:47:28;;;;;;;4.53;2.65;;;;;;;;;;5074932;28;20037;-76
2022/06/22 03:49:57;;;;;;;6.38;2.95;;;;;;;;;;5071896;28;20012;-75
2022/06/22 03:52:31;;;;;;;5.57;2.47;;;;;;;;;;5073658;28;20064;-74
2022/06/22 03:54:57;;;;;;;;;;;;;;;;;;5071691;28;20027;-75
2022/06/22 03:57:25;;;;;;;4.57;2.50;;;;;;;;;;5082998;28;19916;-74
2022/06/22 03:59:52;;;;;;;5.32;2.60;;;;;;;;;;5072162;28;20221;-75
2022/06/22 04:02:19;;;;;;;4.68;2.45;;;;;;;;;;5070771;28;20043;-74
2022/06/22 04:04:46;;;;;;;4.28;2.40;;;;;;;;;;5075939;28;20029;-74
2022/06/22 04:07:14;;;;;;;3.55;2.40;;;;;;;;;;5070312;28;20030;-74
2022/06/22 04:09:42;;;;;;;5.78;2.58;;;;;;;;;;5067465;28;20021;-75
2022/06/22 04:12:18;;;;;;;6.47;2.83;;;;;;;;;;5071676;28;20085;-74
2022/06/22 04:14:44;;;;;;;5.40;2.25;;;;;;;;;;5073243;28;20024;-75
2022/06/22 04:17:14;;;;;;;5.72;2.70;;;;;;;;;;5074869;28;20024;-75
2022/06/22 04:19:51;;;;;;;3.15;2.13;;;;;;;;;;5073866;28;20044;-75
2022/06/22 04:22:22;;;;;;;4.60;2.10;;;;;;;;;;5071639;28;20024;-74
2022/06/22 04:24:51;;;;;;;3.65;2.33;;;;;;;;;;5068695;28;20044;-75
2022/06/22 04:27:20;;;;;;;5.82;2.60;;;;;;;;;;5074993;28;20024;-74
2022/06/22 04:29:52;;;;;;;4.82;2.30;;;;;;;;;;5058479;28;20083;-74
2022/06/22 04:32:23;;;;;;;5.63;2.55;;;;;;;;;;5070869;28;20036;-74
2022/06/22 04:34:53;;;;;;;5.38;2.30;;;;;;;;;;5067730;28;20021;-75
2022/06/22 04:37:36;;;;;;;4.35;2.15;;;;;;;;;;5070330;28;20376;-75
2022/06/22 04:40:20;;;;;;;6.90;2.28;;;;;;;;;;5071735;28;20100;-75
2022/06/22 04:42:46;;;;;;;3.90;2.33;;;;;;;;;;5079478;28;20020;-74
2022/06/22 04:45:29;;;;;;;4.10;2.70;;;;;;;;;;5075876;28;20021;-74
2022/06/22 04:47:59;;;;;;;5.22;2.45;;;;;;;;;;5072509;28;20432;-74
2022/06/22 04:50:26;;;;;;;10.48;3.53;;;;;;;;;;5074852;28;20047;-74
2022/06/22 04:52:55;;;;;;;5.38;3.08;;;;;;;;;;5077180;28;20131;-75
2022/06/22 04:55:23;;;;;;;6.57;2.45;;;;;;;;;;5081863;28;20021;-74
2022/06/22 04:57:51;;;;;;;7.10;2.50;;;;;;;;;;5080577;28;20703;-75
2022/06/22 05:00:19;;;;;;;5.55;2.33;;;;;;;;;;5070455;28;20043;-75
2022/06/22 05:02:46;;;;;;;6.97;3.60;;;;;;;;;;5073910;28;20487;-74
2022/06/22 05:05:20;;;;;;;8.07;2.70;;;;;;;;;;5074838;28;20096;-74
2022/06/22 05:07:52;;;;;;;70.30;6.88;;;;;;;;;;5080766;28;20031;-74
2022/06/22 05:10:26;;;;;;;15.82;3.20;;;;;;;;;;5079448;28;20029;-74
2022/06/22 05:12:57;;;;;;;10.82;2.60;;;;;;;;;;5079210;28;20034;-74
2022/06/22 05:15:28;;;;;;;6.30;2.47;;;;;;;;;;5080005;28;20034;-74
2022/06/22 05:17:55;;;;;;;8.57;2.72;;;;;;;;;;5074442;28;20021;-75
2022/06/22 05:20:30;;;;;;;4.05;2.42;;;;;;;;;;5073558;28;20049;-75
2022/06/22 05:22:58;;;;;;;4.65;2.40;;;;;;;;;;5077256;28;20028;-75
2022/06/22 05:25:25;;;;;;;8.82;2.80;;;;;;;;;;5077495;28;20069;-75
2022/06/22 05:27:51;;;;;;;4.53;2.53;;;;;;;;;;5077545;28;20581;-75
2022/06/22 05:30:17;;;;;;;5.53;2.75;;;;;;;;;;5073381;28;20085;-75
2022/06/22 05:32:46;;;;;;;6.75;2.60;;;;;;;;;;5072704;28;20036;-74
2022/06/22 05:35:15;;;;;;;30.58;4.47;;;;;;;;;;5073426;28;20024;-74
2022/06/22 05:37:45;;;;;;;14.63;3.40;;;;;;;;;;5072406;28;20036;-75
2022/06/22 05:40:12;;;;;;;6.55;2.72;;;;;;;;;;5076715;28;20378;-75
2022/06/22 05:42:38;;;;;;;11.23;2.72;;;;;;;;;;5078218;28;20038;-74
2022/06/22 05:45:11;;;;;;;15.07;3.17;;;;;;;;;;5070626;28;20028;-74
2022/06/22 05:47:38;;;;;;;16.27;3.42;;;;;;;;;;5074908;28;20040;-75
2022/06/22 05:50:22;;;;;;;4.22;2.38;;;;;;;;;;5076519;28;20032;-81
2022/06/22 05:52:53;;;;;;;18.80;3.03;;;;;;;;;;5077115;28;20039;-74
2022/06/22 05:55:25;;;;;;;9.35;2.60;;;;;;;;;;5078930;28;20020;-76
2022/06/22 05:57:55;;;;;;;6.53;2.45;;;;;;;;;;5086853;28;20036;-75
2022/06/22 06:00:23;;;;;;;6.32;2.20;;;;;;;;;;5079033;28;20109;-75
2022/06/22 06:03:06;;;;;;;5.30;2.40;;;;;;;;;;5088514;28;20474;-74
2022/06/22 06:05:35;;;;;;;6.18;2.88;;;;;;;;;;5079986;28;20066;-75
2022/06/22 06:08:03;;;;;;;11.00;2.88;;;;;;;;;;5071899;28;20489;-73
2022/06/22 06:10:37;;;;;;;4.55;2.30;;;;;;;;;;5080950;28;20033;-72
2022/06/22 06:13:06;;;;;;;4.45;2.25;;;;;;;;;;5072741;28;20030;-75
2022/06/22 06:15:37;;;;;;;7.80;2.90;;;;;;;;;;5070512;28;20067;-77
2022/06/22 06:18:03;;;;;;;6.75;2.63;;;;;;;;;;5079403;28;20025;-76
2022/06/22 06:20:35;;;;;;;11.45;2.75;;;;;;;;;;5088315;28;20048;-77
2022/06/22 06:23:11;;;;;;;8.07;3.53;;;;;;;;;;5075940;28;20021;-80
2022/06/22 06:28:33;;;;;;;12.68;2.83;;;;;;;;;;5069195;28;20226;-76
2022/06/22 06:31:05;;;;;;;9.07;2.70;;;;;;;;;;5079657;28;20036;-73
2022/06/22 06:33:35;;;;;;;28.38;4.15;;;;;;;;;;5077465;28;20028;-73
2022/06/22 06:36:20;;;;;;;8.02;2.53;;;;;;;;;;5072903;28;20025;-75
2022/06/22 06:38:51;;;;;;;9.85;3.30;;;;;;;;;;5080532;28;20146;-78
2022/06/22 06:41:24;;;;;;;10.25;3.42;;;;;;;;;;5080613;28;20067;-76
2022/06/22 06:43:50;;;;;;;;;;;;;;;;;;5082653;28;20047;-78
2022/06/22 06:46:19;;;;;;;8.20;2.90;;;;;;;;;;5079191;28;20368;-77
2022/06/22 06:48:48;;;;;;;11.02;3.30;;;;;;;;;;5067364;28;20025;-77
2022/06/22 06:51:15;;;;;;;9.70;3.72;;;;;;;;;;5075585;28;20035;-74
2022/06/22 06:53:48;;;;;;;10.00;4.45;;;;;;;;;;5080208;28;20032;-72
2022/06/22 06:56:19;;;;;;;13.67;4.17;;;;;;;;;;5079500;28;20545;-73
2022/06/22 06:58:51;;;;;;;7.60;3.28;;;;;;;;;;5077692;28;20031;-73
2022/06/22 07:01:21;;;;;;;6.55;3.55;;;;;;;;;;5073712;28;20013;-72
2022/06/22 07:03:48;;;;;;;13.57;4.93;;;;;;;;;;5079724;28;20028;-76
2022/06/22 07:06:14;;;;;;;9.05;4.28;;;;;;;;;;5075192;28;20135;-77
2022/06/22 07:08:54;;;;;;;10.75;3.75;;;;;;;;;;5072584;28;20033;-79
2022/06/22 07:11:31;;;;;;;8.65;2.85;;;;;;;;;;5068352;28;20040;-78
2022/06/22 07:14:07;;;;;;;6.30;3.30;;;;;;;;;;5072736;28;20016;-76
2022/06/22 07:16:33;;;;;;;5.07;2.58;;;;;;;;;;5074113;28;20539;-75
2022/06/22 07:19:05;;;;;;;7.35;2.90;;;;;;;;;;5076730;28;20024;-76
2022/06/22 07:21:38;;;;;;;4.57;2.67;;;;;;;;;;5077570;28;20040;-75
2022/06/22 07:24:04;;;;;;;;;;;;;;;;;;5078083;28;20039;-84
2022/06/22 07:26:30;;;;;;;7.53;3.35;;;;;;;;;;5076007;28;19916;-80
2022/06/22 07:29:02;;;;;;;17.83;4.22;;;;;;;;;;5083384;28;20016;-78
2022/06/22 07:31:32;;;;;;;12.93;3.88;;;;;;;;;;5059006;28;20040;-76
2022/06/22 07:33:58;;;;;;;7.07;3.10;;;;;;;;;;5074088;28;20033;-81
2022/06/22 07:36:25;;;;;;;5.25;2.90;;;;;;;;;;5058278;28;20361;-74
2022/06/22 07:39:10;;;;;;;5.13;2.70;;;;;;;;;;5071358;28;20501;-77
2022/06/22 07:41:36;;;;;;;27.20;4.13;;;;;;;;;;5060392;28;20505;-74
2022/06/22 07:44:04;;;;;;;10.02;3.00;;;;;;;;;;5077983;28;20157;-78
2022/06/22 07:46:34;;;;;;;13.52;3.00;;;;;;;;;;5095706;28;20051;-84
2022/06/22 07:49:10;;;;;;;8.70;2.80;;;;;;;;;;5075284;28;20027;-82
2022/06/22 07:51:38;;;;;;;8.88;2.90;;;;;;;;;;5076119;28;20045;-74
2022/06/22 07:54:08;;;;;;;6.18;3.15;;;;;;;;;;5076805;28;20024;-75
2022/06/22 07:56:34;;;;;;;18.25;3.17;;;;;;;;;;5072385;28;20056;-75
2022/06/22 07:59:27;;;;;;;5.43;2.65;;;;;;;;;;5079638;28;20024;-76
2022/06/22 08:01:55;;;;;;;5.78;3.08;;;;;;;;;;5079060;28;20486;-77
2022/06/22 08:04:24;;;;;;;9.38;3.13;;;;;;;;;;5077670;28;20020;-79
2022/06/22 08:06:57;;;;;;;6.40;2.78;;;;;;;;;;5074321;28;20060;-81
2022/06/22 08:09:26;;;;;;;5.77;2.70;;;;;;;;;;5072997;28;20032;-75
2022/06/22 08:11:57;;;;;;;7.57;3.00;;;;;;;;;;5073932;28;20044;-79
2022/06/22 08:14:27;;;;;;;7.63;3.00;;;;;;;;;;5075768;28;20040;-78
2022/06/22 08:16:57;;;;;;;11.63;3.10;;;;;;;;;;5069777;28;20040;-77
2022/06/22 08:19:27;;;;;;;5.32;2.80;;;;;;;;;;5074825;28;20389;-78
2022/06/22 08:21:54;;;;;;;6.40;2.95;;;;;;;;;;5073857;28;20039;-78
2022/06/22 08:24:20;;;;;;;8.90;2.90;;;;;;;;;;5075289;28;20029;-78
2022/06/22 08:26:48;;;;;;;15.77;3.70;;;;;;;;;;5070608;28;20493;-77
2022/06/22 08:29:18;;;;;;;5.47;2.90;;;;;;;;;;5067160;28;20502;-77
2022/06/22 08:31:50;;;;;;;6.40;3.15;;;;;;;;;;5074991;28;20133;-76
2022/06/22 08:34:18;;;;;;;19.80;3.60;;;;;;;;;;5069358;28;20421;-77
2022/06/22 08:36:47;;;;;;;10.57;3.05;;;;;;;;;;5079050;28;20082;-73
2022/06/22 08:39:23;;;;;;;6.95;2.90;;;;;;;;;;5071393;28;20032;-76
2022/06/22 08:42:00;;;;;;;9.10;2.92;;;;;;;;;;5070576;28;20028;-75
2022/06/22 08:44:35;;;;;;;6.30;3.00;;;;;;;;;;5078928;28;20032;-74
2022/06/22 08:47:04;;;;;;;6.28;2.80;;;;;;;;;;5072012;28;20040;-74
2022/06/22 08:49:42;;;;;;;10.50;3.17;;;;;;;;;;5073341;28;20060;-75
2022/06/22 08:52:27;;;;;;;5.88;2.92;;;;;;;;;;5073181;28;20047;-75
2022/06/22 08:55:11;;;;;;;8.10;3.40;;;;;;;;;;5079671;28;20024;-80
2022/06/22 08:57:46;;;;;;;11.00;3.03;;;;;;;;;;5071338;28;20036;-80
2022/06/22 09:00:21;;;;;;;6.65;3.03;;;;;;;;;;5056538;28;20032;-82
2022/06/22 09:02:53;;;;;;;5.80;2.53;;;;;;;;;;5062775;28;20063;-81
2022/06/22 09:05:22;;;;;;;5.88;2.60;;;;;;;;;;5070415;28;20033;-77
2022/06/22 09:08:07;;;;;;;4.38;2.15;;;;;;;;;;5073259;28;20478;-78
2022/06/22 09:10:36;;;;;;;3.13;1.90;;;;;;;;;;5073025;28;20112;-80
2022/06/22 09:13:22;;;;;;;5.35;2.17;;;;;;;;;;5071729;28;20032;-78
2022/06/22 09:15:59;;;;;;;8.20;2.15;;;;;;;;;;5071732;28;20097;-78
2022/06/22 09:18:36;;;;;;;3.30;1.77;;;;;;;;;;5068883;28;20086;-74
2022/06/22 09:21:08;;;;;;;5.50;1.90;;;;;;;;;;5072605;28;20147;-76
2022/06/22 09:23:53;;;;;;;4.15;2.22;;;;;;;;;;5079462;28;20024;-74
2022/06/22 09:26:27;;;;;;;4.25;2.00;;;;;;;;;;5078934;28;20393;-75
2022/06/22 09:28:58;;;;;;;4.97;1.77;;;;;;;;;;5069368;28;20090;-75
2022/06/22 09:31:47;;;;;;;5.43;2.70;;;;;;;;;;5075177;28;20068;-76
2022/06/22 09:34:31;;;;;;;9.95;2.58;;;;;;;;;;4991827;28;20546;-76
2022/06/22 09:37:16;;;;;;;3.90;2.05;;;;;;;;;;4993212;28;20041;-75
2022/06/22 09:39:51;;;;;;;5.13;2.97;;;;;;;;;;4993418;28;20524;-76
2022/06/22 09:42:17;;;;;;;12.50;2.50;;;;;;;;;;4990635;28;20034;-75
2022/06/22 09:45:01;;;;;;;4.13;2.13;;;;;;;;;;4991649;28;20173;-76
2022/06/22 09:47:27;;;;;;;18.77;3.15;;;;;;;;;;4988764;28;20465;-73
2022/06/22 09:50:02;;;;;;;6.60;2.50;;;;;;;;;;4991209;28;20549;-75
2022/06/22 09:52:37;;;;;;;6.05;2.90;;;;;;;;;;4991147;28;20162;-75
2022/06/22 09:57:47;;;;;;;7.05;2.33;;;;;;;;;;4991042;28;20046;-75
2022/06/22 10:00:36;;;;;;;15.00;2.55;;;;;;;;;;4990907;28;20030;-79
2022/06/22 10:03:22;;;;;;;7.72;2.30;;;;;;;;;;4992331;28;20320;-76
2022/06/22 10:06:00;;;;;;;5.28;2.45;;;;;;;;;;4989583;28;20035;-76
2022/06/22 10:08:48;;;;;;;6.18;2.63;;;;;;;;;;4990993;28;20097;-76
2022/06/22 10:11:40;;;;;;;2.95;1.80;;;;;;;;;;5043415;28;20071;-80
2022/06/22 10:14:38;;;;;;;11.07;2.78;;;;;;;;;;5049397;28;20056;-77
2022/06/22 10:17:04;;;;;;;12.70;2.90;;;;;;;;;;5087059;28;20135;-75
2022/06/22 10:19:33;;;;;;;6.20;3.00;;;;;;;;;;5072469;28;20513;-84
2022/06/22 10:22:06;;;;;;;6.22;3.10;;;;;;;;;;5076064;28;20111;-84
2022/06/22 10:24:47;;;;;;;6.70;2.05;;;;;;;;;;5072959;28;20498;-82
2022/06/22 10:27:13;;;;;;;6.28;2.13;;;;;;;;;;5071052;28;20028;-86
2022/06/22 10:29:42;;;;;;;9.98;2.38;;;;;;;;;;5090512;28;20073;-77
2022/06/22 10:32:08;;;;;;;2.47;1.70;;;;;;;;;;5074419;28;20036;-76
2022/06/22 10:34:41;;;;;;;5.45;2.05;;;;;;;;;;5071244;28;20095;-76
2022/06/22 10:37:07;;;;;;;6.95;2.35;;;;;;;;;;5069642;28;20047;-76
2022/06/22 10:39:51;;;;;;;3.90;2.22;;;;;;;;;;5069117;28;20098;-76
2022/06/22 10:45:25;;;;;;;4.25;2.00;;;;;;;;;;5069991;28;20124;-76
2022/06/22 10:47:51;;;;;;;5.32;2.15;;;;;;;;;;5070538;28;20024;-75
2022/06/22 10:50:35;;;;;;;7.97;2.60;;;;;;;;;;5072043;28;20023;-75
2022/06/22 10:53:10;;;;;;;9.05;2.22;;;;;;;;;;5077094;28;20028;-76
2022/06/22 10:55:52;;;;;;;8.40;2.20;;;;;;;;;;5068287;28;20477;-76
2022/06/22 10:58:24;;;;;;;10.88;2.33;;;;;;;;;;5072900;28;20020;-76
2022/06/22 11:00:53;;;;;;;5.22;2.15;;;;;;;;;;5072972;28;20105;-76
2022/06/22 11:03:38;;;;;;;6.53;2.45;;;;;;;;;;5082438;28;20482;-76
2022/06/22 11:06:05;;;;;;;6.82;2.25;;;;;;;;;;5072889;28;20028;-76
2022/06/22 11:08:43;;;;;;;8.30;2.20;;;;;;;;;;5068860;28;20553;-74
2022/06/22 11:11:18;;;;;;;9.73;2.97;;;;;;;;;;5066240;28;20041;-77
2022/06/22 11:13:44;;;;;;;7.75;2.42;;;;;;;;;;5070577;28;20029;-75
2022/06/22 11:16:10;;;;;;;12.20;2.45;;;;;;;;;;5071829;28;20174;-80
2022/06/22 11:18:47;;;;;;;3.83;2.25;;;;;;;;;;5071427;28;20101;-73
2022/06/22 11:21:32;;;;;;;4.38;2.47;;;;;;;;;;5072225;28;20048;-73
2022/06/22 11:24:16;;;;;;;6.47;2.30;;;;;;;;;;5073928;28;20028;-74
2022/06/22 11:32:57;;;;;;;4.13;2.20;;;;;;;;;;5074161;28;20047;-77
2022/06/22 11:35:42;;;;;;;9.13;2.30;;;;;;;;;;5074029;28;20393;-73
2022/06/22 11:38:17;;;;;;;4.32;2.45;;;;;;;;;;5066761;28;20021;-74
2022/06/22 11:40:43;;;;;;;8.15;2.92;;;;;;;;;;5072603;28;20024;-73
2022/06/22 11:43:27;;;;;;;9.10;2.65;;;;;;;;;;5070156;28;20039;-74
2022/06/22 11:46:23;;;;;;;7.38;2.65;;;;;;;;;;5071870;28;20591;-72
2022/06/22 11:49:08;;;;;;;8.75;2.80;;;;;;;;;;5005539;28;20038;-73
2022/06/22 11:51:52;;;;;;;7.15;2.60;;;;;;;;;;5000470;28;20575;-71
2022/06/22 11:54:33;;;;;;;7.45;2.90;;;;;;;;;;4998611;28;20046;-72
2022/06/22 11:57:00;;;;;;;7.38;2.53;;;;;;;;;;5003990;28;20046;-74
2022/06/22 11:59:35;;;;;;;4.18;2.40;;;;;;;;;;5008307;28;20048;-73
2022/06/22 12:02:15;;;;;;;6.78;2.90;;;;;;;;;;4999823;28;20037;-76
2022/06/22 12:04:59;;;;;;;7.57;3.08;;;;;;;;;;5008107;28;20041;-73
2022/06/22 12:07:51;;;;;;;9.25;2.90;;;;;;;;;;5006732;28;20128;-72
2022/06/22 12:10:23;;;;;;;5.40;2.83;;;;;;;;;;4990689;28;20040;-73
2022/06/22 12:12:49;;;;;;;14.68;4.00;;;;;;;;;;5008961;28;20073;-74
2022/06/22 12:15:34;;;;;;;7.38;3.00;;;;;;;;;;5005145;28;20076;-74
2022/06/22 12:18:09;;;;;;;8.02;3.22;;;;;;;;;;5008131;28;20033;-73
2022/06/22 12:20:35;;;;;;;7.53;3.00;;;;;;;;;;4996824;28;20106;-70
2022/06/22 12:23:20;;;;;;;8.90;3.30;;;;;;;;;;5004484;28;20041;-74
2022/06/22 12:26:03;;;;;;;7.07;2.90;;;;;;;;;;5023707;28;20044;-72
2022/06/22 12:28:29;;;;;;;14.45;3.17;;;;;;;;;;5048393;28;20021;-72
2022/06/22 12:31:14;;;;;;;18.20;3.58;;;;;;;;;;5051604;28;20032;-72
2022/06/22 12:33:54;;;;;;;36.33;5.40;;;;;;;;;;5049854;28;20033;-73
2022/06/22 12:36:26;;;;;;;11.65;3.25;;;;;;;;;;5057245;28;20478;-73
2022/06/22 12:39:09;;;;;;;11.18;4.07;;;;;;;;;;5054236;28;20154;-72
2022/06/22 12:41:43;;;;;;;9.20;3.30;;;;;;;;;;5052751;28;20033;-71
2022/06/22 12:44:27;;;;;;;12.27;3.47;;;;;;;;;;5047612;28;20021;-72
2022/06/22 12:47:09;;;;;;;8.60;3.38;;;;;;;;;;5055292;28;20047;-73
2022/06/22 12:49:35;;;;;;;20.70;4.00;;;;;;;;;;5050853;28;20028;-72
2022/06/22 12:52:10;;;;;;;8.98;3.00;;;;;;;;;;5050019;28;20556;-72
2022/06/22 12:54:39;;;;;;;7.30;2.92;;;;;;;;;;5056752;28;20044;-71
2022/06/22 12:57:10;;;;;;;10.23;3.33;;;;;;;;;;5046886;28;20032;-71
2022/06/22 12:59:43;;;;;;;17.08;3.30;;;;;;;;;;5051247;28;20021;-71
2022/06/22 13:02:14;;;;;;;18.48;3.58;;;;;;;;;;5051326;28;20081;-74
2022/06/22 13:04:42;;;;;;;15.05;3.78;;;;;;;;;;5053002;28;20419;-73
2022/06/22 13:07:11;;;;;;;11.32;3.00;;;;;;;;;;5062818;28;20017;-72
2022/06/22 13:09:37;;;;;;;17.73;3.58;;;;;;;;;;5055759;28;20115;-73
2022/06/22 13:12:11;;;;;;;11.20;3.20;;;;;;;;;;5052533;28;20033;-71
2022/06/22 13:14:37;;;;;;;21.05;3.90;;;;;;;;;;5054179;28;20079;-71
2022/06/22 13:17:24;;;;;;;13.07;3.92;;;;;;;;;;5063260;28;20470;-72
2022/06/22 13:19:56;;;;;;;12.45;3.10;;;;;;;;;;5059809;28;20045;-72
2022/06/22 13:22:30;;;;;;;12.43;3.40;;;;;;;;;;5083344;28;20055;-72
2022/06/22 13:25:02;;;;;;;9.88;3.15;;;;;;;;;;5078056;28;20604;-72
2022/06/22 13:27:39;;;;;;;12.57;4.00;;;;;;;;;;5081303;28;20386;-71
2022/06/22 13:30:15;;;;;;;8.82;2.83;;;;;;;;;;5075720;28;20496;-71
2022/06/22 13:32:43;;;;;;;9.00;3.50;;;;;;;;;;5072129;28;20699;-71
2022/06/22 13:35:13;;;;;;;8.85;3.15;;;;;;;;;;5059500;28;20471;-72
2022/06/22 13:37:43;;;;;;;12.02;3.25;;;;;;;;;;5057233;28;20033;-71
2022/06/22 13:40:26;;;;;;;11.70;3.03;;;;;;;;;;5058083;28;20017;-73
2022/06/22 13:43:13;;;;;;;11.65;3.45;;;;;;;;;;5053058;28;20493;-71
2022/06/22 13:46:03;;;;;;;7.07;2.90;;;;;;;;;;5057851;28;20029;-73
2022/06/22 13:48:55;;;;;;;7.07;3.78;;;;;;;;;;5054177;28;20081;-71
2022/06/22 13:51:29;;;;;;;8.52;3.55;;;;;;;;;;5037508;28;20045;-71
2022/06/22 13:54:12;;;;;;;7.13;3.47;;;;;;;;;;5056963;28;20497;-72
2022/06/22 13:56:47;;;;;;;14.02;3.17;;;;;;;;;;5070728;28;20413;-72
2022/06/22 13:59:24;;;;;;;10.77;3.33;;;;;;;;;;5070513;28;20028;-72
2022/06/22 14:01:53;;;;;;;8.68;3.38;;;;;;;;;;5073514;28;20028;-72
2022/06/22 14:04:21;;;;;;;8.02;3.10;;;;;;;;;;5074409;28;20107;-72
2022/06/22 14:06:54;;;;;;;6.00;3.03;;;;;;;;;;5074161;28;20040;-72
2022/06/22 14:09:20;;;;;;;27.25;4.22;;;;;;;;;;5072078;28;20016;-70
2022/06/22 14:11:52;;;;;;;10.57;3.65;;;;;;;;;;5068347;28;20168;-69
2022/06/22 14:14:21;;;;;;;7.25;3.10;;;;;;;;;;5072550;28;20056;-76
2022/06/22 14:17:16;;;;;;;6.50;3.22;;;;;;;;;;5085069;28;20028;-74
2022/06/22 14:19:49;;;;;;;12.27;3.55;;;;;;;;;;4993569;28;20061;-74
2022/06/22 14:22:28;;;;;;;6.97;3.00;;;;;;;;;;4989602;28;20066;-72
2022/06/22 14:24:56;;;;;;;8.73;3.10;;;;;;;;;;4985428;28;20473;-71
2022/06/22 14:27:37;;;;;;;11.95;3.30;;;;;;;;;;4988285;28;20041;-70
2022/06/22 14:30:06;;;;;;;6.07;3.05;;;;;;;;;;4988949;28;20105;-71
2022/06/22 14:32:44;;;;;;;13.18;3.45;;;;;;;;;;4989124;28;20050;-70
2022/06/22 14:35:10;;;;;;;7.60;3.60;;;;;;;;;;4988502;28;20029;-70
2022/06/22 14:37:57;;;;;;;7.20;3.50;;;;;;;;;;4985779;28;20039;-69
2022/06/22 14:40:26;;;;;;;6.13;3.45;;;;;;;;;;4992199;28;20154;-70
2022/06/22 14:42:57;;;;;;;11.73;3.15;;;;;;;;;;4991908;28;20081;-72
2022/06/22 14:45:33;;;;;;;8.45;3.20;;;;;;;;;;4990559;28;20511;-72
2022/06/22 14:48:02;;;;;;;9.60;3.30;;;;;;;;;;4983884;28;20076;-73
2022/06/22 14:50:28;;;;;;;8.45;2.97;;;;;;;;;;4990086;28;20042;-71
2022/06/22 14:53:00;;;;;;;7.05;3.17;;;;;;;;;;4982621;28;20070;-73
2022/06/22 14:55:33;;;;;;;8.70;3.40;;;;;;;;;;5005857;28;20087;-72
2022/06/22 14:58:04;;;;;;;8.45;3.40;;;;;;;;;;5061139;28;20025;-70
2022/06/22 15:00:49;;;;;;;8.48;3.30;;;;;;;;;;5044783;28;20033;-71
2022/06/22 15:03:15;;;;;;;7.93;3.22;;;;;;;;;;5061245;28;20507;-71
2022/06/22 15:05:56;;;;;;;9.35;3.55;;;;;;;;;;5053664;28;20033;-72
2022/06/22 15:08:25;;;;;;;15.13;6.40;;;;;;;;;;5053559;28;20517;-70
2022/06/22 15:12:56;;;;;;;11.57;4.88;;;;;;;;;;5054258;28;20075;-71
2022/06/22 15:13:51;;;;;;;8.68;4.25;;;;;;;;;;5047356;28;20029;-72
2022/06/22 15:16:20;;;;;;;6.85;3.97;;;;;;;;;;5051904;28;20493;-72
2022/06/22 15:18:49;;;;;;;7.63;3.33;;;;;;;;;;5058497;28;20071;-72
2022/06/22 15:21:22;;;;;;;8.90;3.50;;;;;;;;;;5072189;28;20094;-71
2022/06/22 15:23:55;;;;;;;7.40;3.58;;;;;;;;;;5072244;28;20478;-71
2022/06/22 15:26:24;;;;;;;12.02;3.72;;;;;;;;;;5073551;28;20036;-72
2022/06/22 15:28:53;;;;;;;7.18;3.40;;;;;;;;;;5077569;28;20025;-72
2022/06/22 15:31:35;;;;;;;6.75;3.38;;;;;;;;;;5066884;28;20072;-72
2022/06/22 15:34:20;;;;;;;6.90;3.25;;;;;;;;;;5068632;28;20027;-71
2022/06/22 15:36:48;;;;;;;8.02;3.28;;;;;;;;;;5074890;28;20481;-71